Time;durP1;ratioP1;P1;durP2;ratioP2;P2;SDS_P1;SDS_P2;PMS_P1;PMS_P2;Temp;Humidity;BMP_temperature;BMP_pressure;BME280_temperature;BME280_humidity;BME280_pressure;Samples;Min_cycle;Max_cycle;Signal;HPM_P1;HPM_P2
2022/08/27 00:02:05;;;;;;;;;;;17.90;99.90;;;;;;5130878;27;19925;-72
2022/08/27 00:04:31;;;;;;;;;;;17.80;99.90;;;;;;5124361;27;19926;-72
2022/08/27 00:06:56;;;;;;;;;;;17.80;99.90;;;;;;5115733;27;19934;-72
2022/08/27 00:09:22;;;;;;;;;;;17.80;99.90;;;;;;5131599;27;19920;-71
2022/08/27 00:11:49;;;;;;;;;;;17.80;99.90;;;;;;5130955;27;19931;-71
2022/08/27 00:14:14;;;;;;;;;;;17.70;99.90;;;;;;5131557;27;19964;-72
2022/08/27 00:16:41;;;;;;;;;;;17.70;99.90;;;;;;5118858;27;19982;-71
2022/08/27 00:19:07;;;;;;;;;;;17.70;99.90;;;;;;5131753;27;19926;-72
2022/08/27 00:21:33;;;;;;;;;;;17.60;99.90;;;;;;5129596;27;19923;-72
2022/08/27 00:23:58;;;;;;;;;;;17.60;99.90;;;;;;5094805;28;19976;-71
2022/08/27 00:26:24;;;;;;;;;;;17.50;99.90;;;;;;5125262;27;20024;-72
2022/08/27 00:28:50;;;;;;;;;;;17.50;99.90;;;;;;5121473;27;19920;-71
2022/08/27 00:31:15;;;;;;;;;;;17.50;99.90;;;;;;5129854;27;19918;-71
2022/08/27 00:33:42;;;;;;;;;;;17.50;99.90;;;;;;5104921;28;20394;-71
2022/08/27 00:36:08;;;;;;;;;;;17.50;99.90;;;;;;5095860;27;19927;-71
2022/08/27 00:38:33;;;;;;;;;;;17.50;99.90;;;;;;5131704;27;19923;-71
2022/08/27 00:41:00;;;;;;;;;;;17.40;99.90;;;;;;5131986;27;19953;-71
2022/08/27 00:43:30;;;;;;;;;;;17.40;99.90;;;;;;5132271;27;19919;-72
2022/08/27 00:46:03;;;;;;;;;;;17.40;99.90;;;;;;5115007;27;19919;-72
2022/08/27 00:48:30;;;;;;;;;;;17.40;99.90;;;;;;5122496;27;19977;-72
2022/08/27 00:50:56;;;;;;;;;;;17.40;99.90;;;;;;5130589;27;20397;-72
2022/08/27 00:53:24;;;;;;;;;;;17.40;99.90;;;;;;5131788;27;19977;-72
2022/08/27 00:56:01;;;;;;;;;;;17.30;99.90;;;;;;5126923;27;19980;-71
2022/08/27 00:58:29;;;;;;;;;;;17.30;99.90;;;;;;5111353;28;19965;-71
2022/08/27 01:00:55;;;;;;;;;;;17.30;99.90;;;;;;5109373;28;19970;-71
2022/08/27 01:03:21;;;;;;;;;;;17.40;99.90;;;;;;5111562;28;19967;-73
2022/08/27 01:05:47;;;;;;;;;;;17.40;99.90;;;;;;5111995;28;20301;-71
2022/08/27 01:08:16;;;;;;;;;;;17.40;99.90;;;;;;5124873;27;19919;-71
2022/08/27 01:10:41;;;;;;;;;;;17.40;99.90;;;;;;5113168;27;20442;-71
2022/08/27 01:13:08;;;;;;;;;;;17.40;99.90;;;;;;5117328;27;19920;-72
2022/08/27 01:15:34;;;;;;;;;;;17.40;99.90;;;;;;5131871;27;19919;-71
2022/08/27 01:18:02;;;;;;;;;;;17.50;99.90;;;;;;5117593;27;20797;-71
2022/08/27 01:20:30;;;;;;;;;;;17.50;99.90;;;;;;5131552;27;19920;-71
2022/08/27 01:23:12;;;;;;;;;;;17.50;99.90;;;;;;5130705;27;19919;-71
2022/08/27 01:25:39;;;;;;;;;;;17.50;99.90;;;;;;5120349;27;19946;-71
2022/08/27 01:28:05;;;;;;;;;;;17.50;99.90;;;;;;5114645;27;19972;-71
2022/08/27 01:30:31;;;;;;;;;;;17.60;99.90;;;;;;5131242;27;20350;-71
2022/08/27 01:32:56;;;;;;;;;;;17.50;99.90;;;;;;5113797;27;19920;-71
2022/08/27 01:35:22;;;;;;;;;;;17.50;99.90;;;;;;5110870;27;19974;-71
2022/08/27 01:37:49;;;;;;;;;;;17.50;99.90;;;;;;5124150;27;19924;-71
2022/08/27 01:40:16;;;;;;;;;;;17.50;99.90;;;;;;5112037;27;19963;-71
2022/08/27 01:42:43;;;;;;;;;;;17.50;99.90;;;;;;5122485;27;20384;-72
2022/08/27 01:45:19;;;;;;;;;;;17.50;99.90;;;;;;5122718;27;19923;-71
2022/08/27 01:47:45;;;;;;;;;;;17.50;99.90;;;;;;5127972;27;19924;-72
2022/08/27 01:50:13;;;;;;;;;;;17.50;99.90;;;;;;5099250;27;19979;-71
2022/08/27 01:52:38;;;;;;;;;;;17.40;99.90;;;;;;5127355;27;20250;-72
2022/08/27 01:55:05;;;;;;;;;;;17.40;99.90;;;;;;5119750;27;19963;-71
2022/08/27 01:57:32;;;;;;;;;;;17.40;99.90;;;;;;5110348;28;20371;-72
2022/08/27 01:59:57;;;;;;;;;;;17.40;99.90;;;;;;5106732;27;19924;-71
2022/08/27 02:02:23;;;;;;;;;;;17.30;99.90;;;;;;5129933;27;19942;-71
2022/08/27 02:04:50;;;;;;;;;;;17.30;99.90;;;;;;5114766;27;20018;-70
2022/08/27 02:07:15;;;;;;;;;;;17.30;99.90;;;;;;5129217;27;20230;-71
2022/08/27 02:09:41;;;;;;;;;;;17.30;99.90;;;;;;5100203;28;20425;-71
2022/08/27 02:12:07;;;;;;;;;;;17.30;99.90;;;;;;5130374;27;20022;-71
2022/08/27 02:14:32;;;;;;;;;;;17.30;99.90;;;;;;5130451;27;20006;-71
2022/08/27 02:16:58;;;;;;;;;;;17.30;99.90;;;;;;5117482;28;20970;-71
2022/08/27 02:19:23;;;;;;;;;;;17.30;99.90;;;;;;5091171;28;19919;-72
2022/08/27 02:21:49;;;;;;;;;;;17.30;99.90;;;;;;5110264;28;20346;-71
2022/08/27 02:24:15;;;;;;;;;;;17.30;99.90;;;;;;5100921;28;19919;-71
2022/08/27 02:26:40;;;;;;;;;;;17.40;99.90;;;;;;5111099;28;19920;-71
2022/08/27 02:29:06;;;;;;;;;;;17.40;99.90;;;;;;5130352;27;19972;-72
2022/08/27 02:31:32;;;;;;;;;;;17.50;99.90;;;;;;5129026;27;19930;-71
2022/08/27 02:33:57;;;;;;;;;;;17.50;99.90;;;;;;5109652;28;19930;-72
2022/08/27 02:36:23;;;;;;;;;;;17.50;99.90;;;;;;5123441;28;19923;-71
2022/08/27 02:38:49;;;;;;;;;;;17.60;99.90;;;;;;5117652;28;19923;-71
2022/08/27 02:41:15;;;;;;;;;;;17.60;99.90;;;;;;5115827;28;20298;-72
2022/08/27 02:43:42;;;;;;;;;;;17.60;99.90;;;;;;5110116;28;19986;-71
2022/08/27 02:46:09;;;;;;;;;;;17.60;99.90;;;;;;5122843;28;20989;-71
2022/08/27 02:48:36;;;;;;;;;;;17.70;99.90;;;;;;5108382;28;19920;-71
2022/08/27 02:51:03;;;;;;;;;;;17.70;99.90;;;;;;5109801;28;19927;-72
2022/08/27 02:53:29;;;;;;;;;;;17.70;99.90;;;;;;5114587;28;20420;-71
2022/08/27 02:55:54;;;;;;;;;;;17.80;99.90;;;;;;5120375;28;19927;-71
2022/08/27 02:58:20;;;;;;;;;;;17.80;99.90;;;;;;5115181;28;19923;-72
2022/08/27 03:00:45;;;;;;;;;;;17.70;99.90;;;;;;5129107;28;19926;-72
2022/08/27 03:03:11;;;;;;;;;;;17.70;99.90;;;;;;5122823;28;20019;-71
2022/08/27 03:05:37;;;;;;;;;;;17.70;99.90;;;;;;5109711;28;20014;-71
2022/08/27 03:08:03;;;;;;;;;;;17.70;99.90;;;;;;5111561;28;20257;-71
2022/08/27 03:10:29;;;;;;;;;;;17.70;99.90;;;;;;5120963;28;19926;-71
2022/08/27 03:12:55;;;;;;;;;;;17.70;99.90;;;;;;5112947;27;19920;-71
2022/08/27 03:15:20;;;;;;;;;;;17.70;99.90;;;;;;5115801;27;19923;-71
2022/08/27 03:20:30;;;;;;;;;;;17.60;99.90;;;;;;5122071;27;19923;-72
2022/08/27 03:22:56;;;;;;;;;;;17.50;99.90;;;;;;5111267;28;19926;-71
2022/08/27 03:25:21;;;;;;;;;;;17.40;99.90;;;;;;5130672;27;20007;-72
2022/08/27 03:27:47;;;;;;;;;;;17.40;99.90;;;;;;5133851;27;20002;-71
2022/08/27 03:30:17;;;;;;;;;;;17.30;99.90;;;;;;5129339;27;19974;-72
2022/08/27 03:32:42;;;;;;;;;;;17.30;99.90;;;;;;5112672;28;19931;-71
2022/08/27 03:35:09;;;;;;;;;;;17.30;99.90;;;;;;5118693;27;19923;-71
2022/08/27 03:37:34;;;;;;;;;;;17.20;99.90;;;;;;5133588;27;19965;-71
2022/08/27 03:40:00;;;;;;;;;;;17.20;99.90;;;;;;5115694;27;19959;-71
2022/08/27 03:42:26;;;;;;;;;;;17.20;99.90;;;;;;5125334;27;19945;-71
2022/08/27 03:44:51;;;;;;;;;;;17.10;99.90;;;;;;5119581;27;19920;-71
2022/08/27 03:47:17;;;;;;;;;;;17.10;99.90;;;;;;5132812;27;20404;-71
2022/08/27 03:49:43;;;;;;;;;;;17.10;99.90;;;;;;5114000;27;20376;-71
2022/08/27 03:52:09;;;;;;;;;;;17.00;99.90;;;;;;5132534;27;19923;-71
2022/08/27 03:54:37;;;;;;;;;;;17.00;99.90;;;;;;5132364;27;20006;-72
2022/08/27 03:57:03;;;;;;;;;;;16.90;99.90;;;;;;5116442;27;19963;-71
2022/08/27 03:59:29;;;;;;;;;;;16.90;99.90;;;;;;5119518;27;20031;-71
2022/08/27 04:01:55;;;;;;;;;;;16.90;99.90;;;;;;5133167;27;19923;-71
2022/08/27 04:04:22;;;;;;;;;;;16.90;99.90;;;;;;5124226;27;19926;-71
2022/08/27 04:06:48;;;;;;;;;;;16.90;99.90;;;;;;5119397;27;20377;-71
2022/08/27 04:09:14;;;;;;;;;;;16.80;99.90;;;;;;5124540;27;20030;-71
2022/08/27 04:11:39;;;;;;;;;;;16.80;99.90;;;;;;5113208;27;19920;-71
2022/08/27 04:14:05;;;;;;;;;;;16.80;99.90;;;;;;5130733;27;19926;-71
2022/08/27 04:16:34;;;;;;;;;;;16.80;99.90;;;;;;5121525;27;19962;-71
2022/08/27 04:19:00;;;;;;;;;;;16.70;99.90;;;;;;5130996;27;19930;-71
2022/08/27 04:21:26;;;;;;;;;;;16.70;99.90;;;;;;5120913;27;19919;-71
2022/08/27 04:23:51;;;;;;;;;;;16.70;99.90;;;;;;5110897;28;20389;-71
2022/08/27 04:26:18;;;;;;;;;;;16.70;99.90;;;;;;5112144;28;19924;-71
2022/08/27 04:28:43;;;;;;;;;;;16.70;99.90;;;;;;5131000;27;19919;-71
2022/08/27 04:31:09;;;;;;;;;;;16.60;99.90;;;;;;5095671;28;19926;-71
2022/08/27 04:33:35;;;;;;;;;;;16.60;99.90;;;;;;5123628;27;19929;-71
2022/08/27 04:36:02;;;;;;;;;;;16.50;99.90;;;;;;5118918;27;19966;-71
2022/08/27 04:38:27;;;;;;;;;;;16.50;99.90;;;;;;5121038;27;20406;-71
2022/08/27 04:43:37;;;;;;;;;;;16.50;99.90;;;;;;5125887;27;19923;-70
2022/08/27 04:46:03;;;;;;;;;;;16.40;99.90;;;;;;5132315;27;20015;-71
2022/08/27 04:48:29;;;;;;;;;;;16.40;99.90;;;;;;5130934;27;19933;-72
2022/08/27 04:50:55;;;;;;;;;;;16.40;99.90;;;;;;5112092;28;19919;-71
2022/08/27 04:53:20;;;;;;;;;;;16.40;99.90;;;;;;5113406;27;19976;-71
2022/08/27 04:55:50;;;;;;;;;;;16.50;99.90;;;;;;5119161;27;20901;-71
2022/08/27 04:58:16;;;;;;;;;;;16.50;99.90;;;;;;5131714;27;20281;-71
2022/08/27 05:00:47;;;;;;;;;;;16.50;99.90;;;;;;5131799;27;20535;-71
2022/08/27 05:03:14;;;;;;;;;;;16.50;99.90;;;;;;5116846;27;20305;-71
2022/08/27 05:05:40;;;;;;;;;;;16.40;99.90;;;;;;5111925;27;19919;-71
2022/08/27 05:08:06;;;;;;;;;;;16.50;99.90;;;;;;5112305;27;20335;-70
2022/08/27 05:10:39;;;;;;;;;;;16.50;99.90;;;;;;5124230;27;19920;-71
2022/08/27 05:13:04;;;;;;;;;;;16.60;99.90;;;;;;5125345;27;20009;-71
2022/08/27 05:15:30;;;;;;;;;;;16.50;99.90;;;;;;5119992;27;20018;-71
2022/08/27 05:17:59;;;;;;;;;;;16.60;99.90;;;;;;5130862;27;19923;-72
2022/08/27 05:20:28;;;;;;;;;;;16.60;99.90;;;;;;5113282;27;19920;-71
2022/08/27 05:22:54;;;;;;;;;;;16.70;99.90;;;;;;5131130;27;19927;-71
2022/08/27 05:25:20;;;;;;;;;;;16.80;99.90;;;;;;5122055;27;19924;-71
2022/08/27 05:27:46;;;;;;;;;;;16.90;99.90;;;;;;5111386;27;20422;-71
2022/08/27 05:30:11;;;;;;;;;;;17.10;99.90;;;;;;5099248;28;19983;-71
2022/08/27 05:32:38;;;;;;;;;;;17.20;99.90;;;;;;5124685;27;19998;-71
2022/08/27 05:35:04;;;;;;;;;;;17.30;99.90;;;;;;5120888;27;19920;-72
2022/08/27 05:37:32;;;;;;;;;;;17.40;99.90;;;;;;5130425;27;20019;-71
2022/08/27 05:40:03;;;;;;;;;;;17.50;99.90;;;;;;5112934;27;19920;-73
2022/08/27 05:42:30;;;;;;;;;;;17.60;99.90;;;;;;5117631;27;19976;-71
2022/08/27 05:44:56;;;;;;;;;;;17.70;99.90;;;;;;5131050;27;19923;-71
2022/08/27 05:47:21;;;;;;;;;;;17.80;99.90;;;;;;5113317;27;19924;-71
2022/08/27 05:49:50;;;;;;;;;;;17.90;99.90;;;;;;5122225;27;19971;-71
2022/08/27 05:52:15;;;;;;;;;;;17.90;99.90;;;;;;5112329;28;19943;-72
2022/08/27 05:54:41;;;;;;;;;;;18.00;99.90;;;;;;5122462;27;19919;-72
2022/08/27 05:57:06;;;;;;;;;;;18.10;99.90;;;;;;5130950;27;20282;-71
2022/08/27 06:02:17;;;;;;;;;;;18.30;99.90;;;;;;5117716;28;19945;-71
2022/08/27 06:04:43;;;;;;;;;;;18.50;99.90;;;;;;5120236;27;19920;-72
2022/08/27 06:07:09;;;;;;;;;;;18.60;99.90;;;;;;5121473;28;19930;-71
2022/08/27 06:09:35;;;;;;;;;;;18.70;99.90;;;;;;5125339;28;20370;-71
2022/08/27 06:12:01;;;;;;;;;;;18.70;99.90;;;;;;5142334;27;19983;-71
2022/08/27 06:14:26;;;;;;;;;;;18.80;99.90;;;;;;5127156;27;19934;-71
2022/08/27 06:16:52;;;;;;;;;;;18.90;99.90;;;;;;5134241;27;19919;-71
2022/08/27 06:19:18;;;;;;;;;;;19.00;99.90;;;;;;5140895;27;19965;-71
2022/08/27 06:21:43;;;;;;;;;;;19.00;99.90;;;;;;5130039;27;19927;-72
2022/08/27 06:24:11;;;;;;;;;;;19.10;99.90;;;;;;5115948;28;19942;-71
2022/08/27 06:26:37;;;;;;;;;;;19.00;99.90;;;;;;5132609;28;19930;-71
2022/08/27 06:29:03;;;;;;;;;;;19.00;99.90;;;;;;5121117;28;19919;-72
2022/08/27 06:31:29;;;;;;;;;;;19.00;99.90;;;;;;5130076;28;19931;-72
2022/08/27 06:33:57;;;;;;;;;;;19.00;99.90;;;;;;5117636;28;19919;-72
2022/08/27 06:36:23;;;;;;;;;;;18.90;99.90;;;;;;5123692;28;19923;-72
2022/08/27 06:38:49;;;;;;;;;;;18.80;99.90;;;;;;5139984;28;19995;-73
2022/08/27 06:41:16;;;;;;;;;;;18.80;99.90;;;;;;5127238;28;19959;-73
2022/08/27 06:43:41;;;;;;;;;;;18.80;99.90;;;;;;5136473;28;19919;-71
2022/08/27 06:46:08;;;;;;;;;;;18.80;99.90;;;;;;5135082;28;19979;-73
2022/08/27 06:48:35;;;;;;;;;;;18.70;99.90;;;;;;5131583;27;19930;-72
2022/08/27 06:51:08;;;;;;;;;;;18.70;99.90;;;;;;5142873;27;19931;-72
2022/08/27 06:53:34;;;;;;;;;;;18.70;99.90;;;;;;5124074;27;20345;-71
2022/08/27 06:55:59;;;;;;;;;;;18.70;99.90;;;;;;5138661;27;19935;-71
2022/08/27 06:58:25;;;;;;;;;;;18.70;99.90;;;;;;5128135;27;20444;-72
2022/08/27 07:00:51;;;;;;;;;;;18.70;99.90;;;;;;5140898;27;19927;-72
2022/08/27 07:03:16;;;;;;;;;;;18.70;99.90;;;;;;5119478;28;20377;-71
2022/08/27 07:05:42;;;;;;;;;;;18.80;99.90;;;;;;5122348;27;19974;-72
2022/08/27 07:08:08;;;;;;;;;;;18.90;99.90;;;;;;5137825;27;20007;-72
2022/08/27 07:10:34;;;;;;;;;;;18.90;99.90;;;;;;5135736;27;19972;-71
2022/08/27 07:13:00;;;;;;;;;;;18.90;99.90;;;;;;5134402;27;19919;-71
2022/08/27 07:15:26;;;;;;;;;;;19.00;99.90;;;;;;5121186;27;20351;-73
2022/08/27 07:17:51;;;;;;;;;;;19.00;99.90;;;;;;5128975;27;19943;-72
2022/08/27 07:20:18;;;;;;;;;;;19.00;99.90;;;;;;5130605;27;20297;-72
2022/08/27 07:22:44;;;;;;;;;;;18.90;99.90;;;;;;5131787;27;19930;-71
2022/08/27 07:25:13;;;;;;;;;;;19.00;99.90;;;;;;5119249;27;19981;-71
2022/08/27 07:27:39;;;;;;;;;;;19.00;99.90;;;;;;5112203;28;19927;-72
2022/08/27 07:30:06;;;;;;;;;;;19.00;99.90;;;;;;5126806;27;20101;-72
2022/08/27 07:32:31;;;;;;;;;;;19.10;99.90;;;;;;5113464;27;19920;-71
2022/08/27 07:34:57;;;;;;;;;;;19.20;99.90;;;;;;5113338;27;19923;-71
2022/08/27 07:37:22;;;;;;;;;;;19.30;99.90;;;;;;5112872;27;19923;-71
2022/08/27 07:39:48;;;;;;;;;;;19.40;99.80;;;;;;5114335;27;19919;-72
2022/08/27 07:44:57;;;;;;;;;;;19.40;99.60;;;;;;5116379;27;19919;-72
2022/08/27 07:47:23;;;;;;;;;;;19.40;99.60;;;;;;5132719;27;19942;-71
2022/08/27 07:49:49;;;;;;;;;;;19.30;99.50;;;;;;5119548;27;20053;-72
2022/08/27 07:52:15;;;;;;;;;;;19.30;99.60;;;;;;5122939;27;20440;-71
2022/08/27 07:54:41;;;;;;;;;;;19.30;99.80;;;;;;5112649;27;19927;-71
2022/08/27 07:57:07;;;;;;;;;;;19.30;99.70;;;;;;5112659;28;19926;-72
2022/08/27 07:59:32;;;;;;;;;;;19.40;99.50;;;;;;5106188;28;19923;-72
2022/08/27 08:01:58;;;;;;;;;;;19.40;99.40;;;;;;5084492;28;20373;-71
2022/08/27 08:04:25;;;;;;;;;;;19.40;99.40;;;;;;5128665;27;19960;-71
2022/08/27 08:06:51;;;;;;;;;;;19.50;99.10;;;;;;5132890;27;19919;-71
2022/08/27 08:09:16;;;;;;;;;;;19.60;99.00;;;;;;5115312;27;20006;-72
2022/08/27 08:11:42;;;;;;;;;;;19.70;98.40;;;;;;5114965;27;19923;-72
2022/08/27 08:14:07;;;;;;;;;;;19.80;98.60;;;;;;5123992;27;20477;-73
2022/08/27 08:16:33;;;;;;;;;;;19.80;98.70;;;;;;5123985;27;19962;-72
2022/08/27 08:19:01;;;;;;;;;;;20.00;98.60;;;;;;5130232;27;19919;-71
2022/08/27 08:21:26;;;;;;;;;;;20.10;98.30;;;;;;5120170;27;19923;-70
2022/08/27 08:23:52;;;;;;;;;;;20.20;98.30;;;;;;5124183;27;19947;-71
2022/08/27 08:26:18;;;;;;;;;;;20.30;98.00;;;;;;5125360;27;19919;-71
2022/08/27 08:28:44;;;;;;;;;;;20.30;98.10;;;;;;5120682;27;20574;-71
2022/08/27 08:31:10;;;;;;;;;;;20.20;97.90;;;;;;5123674;27;19923;-71
2022/08/27 08:33:35;;;;;;;;;;;20.10;97.80;;;;;;5118356;27;19926;-70
2022/08/27 08:36:02;;;;;;;;;;;20.00;98.00;;;;;;5128575;27;19930;-72
2022/08/27 08:38:28;;;;;;;;;;;20.00;97.90;;;;;;5117571;27;19919;-71
2022/08/27 08:40:54;;;;;;;;;;;20.00;97.70;;;;;;5122721;27;19926;-71
2022/08/27 08:43:29;;;;;;;;;;;20.00;97.70;;;;;;5114380;27;19929;-71
2022/08/27 08:45:57;;;;;;;;;;;20.00;97.10;;;;;;5123757;27;19933;-71
2022/08/27 08:48:24;;;;;;;;;;;20.00;97.40;;;;;;5129007;27;19968;-71
2022/08/27 08:51:08;;;;;;;;;;;20.00;97.30;;;;;;5127537;27;19919;-71
2022/08/27 08:53:45;;;;;;;;;;;20.10;97.30;;;;;;5100786;27;20416;-71
2022/08/27 08:56:17;;;;;;;;;;;20.10;97.50;;;;;;5118041;27;19919;-71
2022/08/27 08:58:51;;;;;;;;;;;20.20;97.30;;;;;;5118602;27;20006;-72
2022/08/27 09:01:19;;;;;;;;;;;20.20;97.10;;;;;;5125135;27;20475;-71
2022/08/27 09:03:58;;;;;;;;;;;20.20;97.00;;;;;;5122591;27;19923;-71
2022/08/27 09:06:29;;;;;;;;;;;20.30;97.00;;;;;;5117297;27;19973;-71
2022/08/27 09:09:00;;;;;;;;;;;20.30;97.00;;;;;;5099962;27;19920;-72
2022/08/27 09:11:38;;;;;;;;;;;20.30;97.20;;;;;;5124252;27;19930;-71
2022/08/27 09:14:03;;;;;;;;;;;20.40;97.10;;;;;;5126796;27;20373;-72
2022/08/27 09:16:31;;;;;;;;;;;20.50;96.90;;;;;;5123914;27;19934;-71
2022/08/27 09:18:56;;;;;;;;;;;20.60;96.60;;;;;;5126832;27;19919;-71
2022/08/27 09:21:31;;;;;;;;;;;20.60;96.00;;;;;;5131440;27;19923;-71
2022/08/27 09:24:15;;;;;;;;;;;20.60;96.10;;;;;;5115906;27;20266;-71
2022/08/27 09:26:42;;;;;;;;;;;20.60;96.10;;;;;;5118106;27;19988;-71
2022/08/27 09:29:15;;;;;;;;;;;20.50;96.00;;;;;;5102321;27;19924;-71
2022/08/27 09:31:52;;;;;;;;;;;20.50;96.00;;;;;;5110029;28;19920;-71
2022/08/27 09:34:18;;;;;;;;;;;20.50;95.70;;;;;;5124373;27;20436;-71
2022/08/27 09:36:51;;;;;;;;;;;20.40;95.60;;;;;;5121563;27;20025;-71
2022/08/27 09:39:17;;;;;;;;;;;20.40;95.70;;;;;;5121931;27;19920;-71
2022/08/27 09:41:47;;;;;;;;;;;20.50;95.50;;;;;;5116383;27;19936;-72
2022/08/27 09:44:15;;;;;;;;;;;20.50;95.60;;;;;;5104224;27;19919;-70
2022/08/27 09:46:50;;;;;;;;;;;20.60;95.50;;;;;;5120066;27;20403;-71
2022/08/27 09:49:17;;;;;;;;;;;20.70;95.50;;;;;;5119283;27;19919;-72
2022/08/27 09:51:45;;;;;;;;;;;21.00;95.80;;;;;;5128582;27;19966;-71
2022/08/27 09:54:22;;;;;;;;;;;21.70;95.90;;;;;;5118246;27;19936;-70
2022/08/27 09:56:48;;;;;;;;;;;22.30;94.90;;;;;;5101020;28;20460;-72
2022/08/27 09:59:26;;;;;;;;;;;23.10;94.10;;;;;;5120914;27;20010;-71
2022/08/27 10:02:10;;;;;;;;;;;23.90;93.00;;;;;;5124649;27;20362;-71
2022/08/27 10:04:47;;;;;;;;;;;24.50;92.10;;;;;;5126027;27;19919;-71
2022/08/27 10:07:24;;;;;;;;;;;25.20;91.50;;;;;;5121365;27;19926;-71
2022/08/27 10:09:56;;;;;;;;;;;25.80;90.50;;;;;;5116731;27;19919;-71
2022/08/27 10:12:30;;;;;;;;;;;26.40;87.10;;;;;;5111556;28;19966;-71
2022/08/27 10:14:59;;;;;;;;;;;26.70;84.10;;;;;;5110484;28;19920;-71
2022/08/27 10:17:27;;;;;;;;;;;27.00;86.10;;;;;;5116326;27;19931;-71
2022/08/27 10:20:11;;;;;;;;;;;26.70;85.40;;;;;;5120515;27;19963;-71
2022/08/27 10:22:43;;;;;;;;;;;26.00;84.00;;;;;;5113784;27;19920;-71
2022/08/27 10:25:21;;;;;;;;;;;25.20;86.10;;;;;;5122837;28;19964;-71
2022/08/27 10:27:46;;;;;;;;;;;24.80;87.10;;;;;;5112719;28;19929;-71
2022/08/27 10:30:19;;;;;;;;;;;24.60;87.10;;;;;;5113827;28;20002;-70
2022/08/27 10:32:45;;;;;;;;;;;24.80;88.70;;;;;;5125355;28;19964;-71
2022/08/27 10:35:11;;;;;;;;;;;25.30;86.90;;;;;;5114465;28;20369;-71
2022/08/27 10:37:44;;;;;;;;;;;25.80;87.00;;;;;;5119341;28;19919;-71
2022/08/27 10:40:16;;;;;;;;;;;26.10;85.50;;;;;;5130040;28;19927;-71
2022/08/27 10:42:52;;;;;;;;;;;26.30;83.80;;;;;;5109235;28;20282;-71
2022/08/27 10:45:40;;;;;;;;;;;26.30;82.30;;;;;;5120406;28;19944;-71
2022/08/27 10:48:18;;;;;;;;;;;26.50;82.20;;;;;;5103265;28;19965;-72
2022/08/27 10:50:49;;;;;;;;;;;26.90;80.40;;;;;;5122637;28;19923;-73
2022/08/27 10:53:23;;;;;;;;;;;26.50;80.10;;;;;;5125294;28;19927;-71
2022/08/27 10:55:52;;;;;;;;;;;26.20;82.00;;;;;;5109214;28;19923;-72
2022/08/27 10:58:23;;;;;;;;;;;26.00;80.90;;;;;;5128788;28;19920;-71
2022/08/27 11:01:01;;;;;;;;;;;26.20;82.80;;;;;;5124809;28;19919;-71
2022/08/27 11:03:32;;;;;;;;;;;26.60;81.40;;;;;;5106159;28;20404;-72
2022/08/27 11:05:59;;;;;;;;;;;27.10;82.30;;;;;;5104527;28;20378;-71
2022/08/27 11:08:27;;;;;;;;;;;27.50;78.80;;;;;;5122018;28;19926;-72
2022/08/27 11:10:55;;;;;;;;;;;27.30;78.80;;;;;;5111551;28;20389;-71
2022/08/27 11:13:30;;;;;;;;;;;27.40;78.60;;;;;;5117241;28;20186;-71
2022/08/27 11:15:57;;;;;;;;;;;27.90;78.90;;;;;;5097992;28;19926;-72
2022/08/27 11:18:41;;;;;;;5.65;0.40;;;28.30;77.30;;;;;;5117453;28;19924;-70
2022/08/27 11:21:39;;;;;;;4.50;0.73;;;28.50;77.30;;;;;;5115152;27;20035;-72
2022/08/27 11:24:27;;;;;;;3.63;0.63;;;28.70;76.70;;;;;;5107502;28;20437;-72
2022/08/27 11:26:54;;;;;;;;;;;28.90;74.10;;;;;;5123426;28;20043;-72
2022/08/27 11:29:35;;;;;;;;;;;29.00;74.00;;;;;;5109867;28;19920;-72
2022/08/27 11:32:08;;;;;;;;;;;29.00;73.50;;;;;;5122981;28;19927;-72
2022/08/27 11:34:36;;;;;;;;;;;28.90;73.20;;;;;;5120631;27;19919;-72
2022/08/27 11:37:02;;;;;;;;;;;28.80;71.90;;;;;;5119175;27;19919;-72
2022/08/27 11:39:46;;;;;;;;;;;28.40;72.80;;;;;;5124100;27;19964;-72
2022/08/27 11:42:18;;;;;;;;;;;27.80;71.90;;;;;;5087973;27;20332;-73
2022/08/27 11:44:45;;;;;;;;;;;27.80;72.90;;;;;;5118540;27;19920;-72
2022/08/27 11:47:11;;;;;;;;;;;28.20;72.10;;;;;;5124766;27;19924;-72
2022/08/27 11:50:07;;;;;;;;;;;28.60;71.20;;;;;;5127261;27;20010;-73
2022/08/27 11:52:40;;;;;;;;;;;28.40;70.10;;;;;;5110957;27;19923;-72
2022/08/27 11:55:21;;;;;;;;;;;28.00;71.10;;;;;;5112794;27;20301;-73
2022/08/27 11:58:01;;;;;;;;;;;28.20;72.00;;;;;;5112638;28;20007;-72
2022/08/27 12:00:26;;;;;;;;;;;28.50;69.90;;;;;;5123926;27;20048;-72
2022/08/27 12:02:56;;;;;;;;;;;28.70;71.80;;;;;;5119688;27;20002;-73
2022/08/27 12:05:23;;;;;;;;;;;28.80;70.30;;;;;;5131869;27;19919;-72
2022/08/27 12:07:49;;;;;;;;;;;29.10;70.20;;;;;;5094960;28;19926;-73
2022/08/27 12:10:19;;;;;;;;;;;29.20;69.30;;;;;;5107965;27;19964;-72
2022/08/27 12:12:47;;;;;;;;;;;29.30;69.10;;;;;;5113108;27;19926;-73
2022/08/27 12:15:12;;;;;;;;;;;29.50;68.40;;;;;;5129164;27;19943;-72
2022/08/27 12:17:47;;;;;;;;;;;29.70;68.00;;;;;;5127870;27;20298;-72
2022/08/27 12:20:34;;;;;;;;;;;29.40;67.60;;;;;;5124349;27;19968;-73
2022/08/27 12:26:13;;;;;;;;;;;28.70;67.10;;;;;;5112826;27;19924;-71
2022/08/27 12:28:38;;;;;;;;;;;28.50;67.70;;;;;;5125784;27;19919;-72
2022/08/27 12:31:05;;;;;;;;;;;28.50;66.40;;;;;;5126799;27;19980;-72
2022/08/27 12:33:32;;;;;;;;;;;28.50;67.40;;;;;;5118134;27;19994;-72
2022/08/27 12:36:04;;;;;;;;;;;28.30;67.70;;;;;;5124217;27;19931;-73
2022/08/27 12:38:33;;;;;;;;;;;27.90;66.20;;;;;;5127978;27;19920;-73
2022/08/27 12:41:07;;;;;;;;;;;27.90;68.40;;;;;;5104670;28;20002;-72
2022/08/27 12:43:33;;;;;;;;;;;27.70;67.70;;;;;;5112169;27;19924;-72
2022/08/27 12:46:00;;;;;;;;;;;27.40;68.60;;;;;;5111135;28;19920;-72
2022/08/27 12:48:28;;;;;;;;;;;27.20;69.60;;;;;;5116480;27;19976;-72
2022/08/27 12:50:55;;;;;;;;;;;26.90;67.70;;;;;;5130593;27;19923;-72
2022/08/27 12:53:29;;;;;;;;;;;26.50;68.60;;;;;;5118966;27;19919;-73
2022/08/27 12:55:58;;;;;;;;;;;26.00;69.70;;;;;;5124459;27;19959;-72
2022/08/27 12:58:47;;;;;;;;;;;25.70;70.10;;;;;;5118199;27;19923;-72
2022/08/27 13:01:15;;;;;;;;;;;25.50;70.10;;;;;;5090491;27;20018;-72
2022/08/27 13:03:43;;;;;;;;;;;25.30;70.70;;;;;;5123645;27;19919;-71
2022/08/27 13:06:19;;;;;;;;;;;25.10;71.30;;;;;;5111590;28;19920;-72
2022/08/27 13:08:45;;;;;;;;;;;24.90;71.80;;;;;;5129349;27;19980;-72
2022/08/27 13:11:20;;;;;;;;;;;24.80;72.30;;;;;;5126662;27;19959;-72
2022/08/27 13:13:46;;;;;;;;;;;24.80;73.20;;;;;;5110719;27;19962;-72
2022/08/27 13:16:13;;;;;;;;;;;24.80;72.20;;;;;;5118123;27;19919;-72
2022/08/27 13:18:39;;;;;;;;;;;24.70;71.80;;;;;;5131563;27;19941;-72
2022/08/27 13:21:12;;;;;;;;;;;25.00;72.50;;;;;;5111218;28;19919;-73
2022/08/27 13:23:42;;;;;;;;;;;25.00;71.10;;;;;;5114379;27;20429;-71
2022/08/27 13:26:09;;;;;;;;;;;25.10;71.40;;;;;;5118538;27;19959;-72
2022/08/27 13:28:37;;;;;;;;;;;26.00;71.00;;;;;;5099043;27;19919;-72
2022/08/27 13:31:04;;;;;;;;;;;26.90;69.50;;;;;;5131441;27;19930;-72
2022/08/27 13:33:31;;;;;;;;;;;26.80;68.20;;;;;;5115260;27;19943;-74
2022/08/27 13:35:57;;;;;;;;;;;26.50;68.10;;;;;;5111679;27;19973;-72
2022/08/27 13:38:25;;;;;;;;;;;26.30;68.40;;;;;;5122424;27;19943;-73
2022/08/27 13:40:56;;;;;;;;;;;26.10;67.90;;;;;;5118997;27;20021;-73
2022/08/27 13:43:30;;;;;;;;;;;25.80;67.80;;;;;;5127125;27;20381;-73
2022/08/27 13:45:56;;;;;;;;;;;25.50;68.20;;;;;;5120268;27;19923;-72
2022/08/27 13:48:22;;;;;;;;;;;25.20;68.50;;;;;;5112807;27;19926;-72
2022/08/27 13:50:50;;;;;;;;;;;25.00;68.40;;;;;;5120192;27;19923;-72
2022/08/27 13:56:03;;;;;;;;;;;26.20;68.30;;;;;;5100778;27;19924;-73
2022/08/27 13:58:30;;;;;;;;;;;25.80;67.90;;;;;;5126383;27;20029;-73
2022/08/27 14:01:12;;;;;;;;;;;25.80;69.00;;;;;;5123648;27;20339;-72
2022/08/27 14:03:54;;;;;;;;;;;26.30;67.60;;;;;;5109844;28;19923;-72
2022/08/27 14:06:25;;;;;;;;;;;26.10;67.30;;;;;;5129774;27;19923;-71
2022/08/27 14:08:51;;;;;;;;;;;25.60;67.60;;;;;;5122022;27;20324;-72
2022/08/27 14:11:22;;;;;;;;;;;25.10;68.50;;;;;;5117141;27;19933;-72
2022/08/27 14:13:48;;;;;;;;;;;25.00;68.70;;;;;;5130330;27;20010;-73
2022/08/27 14:16:13;;;;;;;;;;;25.00;69.50;;;;;;5110704;28;19999;-72
2022/08/27 14:18:48;;;;;;;;;;;25.60;69.30;;;;;;5123638;27;19959;-73
2022/08/27 14:21:13;;;;;;;;;;;26.40;68.60;;;;;;5114932;27;19923;-72
2022/08/27 14:23:39;;;;;;;;;;;26.50;66.70;;;;;;5110694;27;19934;-73
2022/08/27 14:26:04;;;;;;;;;;;26.50;66.20;;;;;;5117811;28;20553;-71
2022/08/27 14:28:30;;;;;;;;;;;26.00;66.50;;;;;;5127710;28;19926;-73
2022/08/27 14:30:56;;;;;;;;;;;25.70;66.80;;;;;;5118042;28;19919;-71
2022/08/27 14:33:21;;;;;;;;;;;26.30;66.20;;;;;;5123013;27;20443;-71
2022/08/27 14:35:47;;;;;;;;;;;26.10;66.00;;;;;;5127492;28;19969;-70
2022/08/27 14:38:17;;;;;;;;;;;25.60;66.50;;;;;;5100234;28;20002;-73
2022/08/27 14:40:43;;;;;;;;;;;26.10;66.80;;;;;;5110456;28;20007;-71